Time;durP1;ratioP1;P1;durP2;ratioP2;P2;SDS_P1;SDS_P2;PMS_P1;PMS_P2;Temp;Humidity;BMP_temperature;BMP_pressure;BME280_temperature;BME280_humidity;BME280_pressure;Samples;Min_cycle;Max_cycle;Signal;HPM_P1;HPM_P2
2022/09/18 00:01:16;;;;;;;0.60;0.60;;;13.00;99.90;;;;;;5031597;28;20315;-67
2022/09/18 00:03:43;;;;;;;0.73;0.73;;;13.00;99.90;;;;;;5038526;28;20658;-68
2022/09/18 00:06:13;;;;;;;0.70;0.70;;;13.00;99.90;;;;;;5039865;28;20206;-68
2022/09/18 00:08:42;;;;;;;0.90;0.90;;;13.00;99.90;;;;;;5034397;28;20231;-69
2022/09/18 00:11:11;;;;;;;0.60;0.50;;;13.00;99.90;;;;;;5044980;28;20208;-68
2022/09/18 00:13:39;;;;;;;0.60;0.60;;;13.00;99.90;;;;;;5052169;28;20208;-68
2022/09/18 00:16:08;;;;;;;0.67;0.67;;;13.10;99.90;;;;;;5050323;28;20208;-68
2022/09/18 00:18:35;;;;;;;0.70;0.70;;;13.10;99.90;;;;;;5047692;28;20222;-68
2022/09/18 00:21:06;;;;;;;0.57;0.57;;;13.20;99.90;;;;;;5049822;28;20666;-67
2022/09/18 00:23:33;;;;;;;0.60;0.60;;;13.20;99.90;;;;;;5041809;28;20375;-68
2022/09/18 00:26:02;;;;;;;0.63;0.63;;;13.20;99.90;;;;;;5049735;28;20204;-68
2022/09/18 00:28:28;;;;;;;0.90;0.90;;;13.20;99.90;;;;;;5044335;28;20231;-67
2022/09/18 00:30:55;;;;;;;1.00;0.60;;;13.20;99.90;;;;;;5051757;28;20208;-67
2022/09/18 00:33:22;;;;;;;0.60;0.60;;;13.20;99.90;;;;;;5042455;28;20654;-67
2022/09/18 00:35:49;;;;;;;0.63;0.63;;;13.20;99.90;;;;;;5038908;28;20200;-67
2022/09/18 00:38:16;;;;;;;0.60;0.60;;;13.30;99.90;;;;;;5048245;28;20206;-68
2022/09/18 00:40:42;;;;;;;0.60;0.60;;;13.30;99.90;;;;;;5035000;28;20203;-68
2022/09/18 00:43:19;;;;;;;0.60;0.60;;;13.30;99.90;;;;;;5049920;28;20593;-68
2022/09/18 00:45:50;;;;;;;0.53;0.53;;;13.30;99.90;;;;;;5039587;28;20201;-69
2022/09/18 00:48:18;;;;;;;0.50;0.50;;;13.40;99.90;;;;;;5037196;28;20650;-68
2022/09/18 00:50:45;;;;;;;0.73;0.60;;;13.40;99.90;;;;;;5043455;28;20208;-68
2022/09/18 00:53:12;;;;;;;0.60;0.60;;;13.40;99.90;;;;;;5052091;28;20200;-68
2022/09/18 00:55:41;;;;;;;0.50;0.50;;;13.40;99.90;;;;;;5045363;28;20209;-68
2022/09/18 00:58:09;;;;;;;0.40;0.40;;;13.30;99.90;;;;;;5043068;28;20219;-68
2022/09/18 01:00:37;;;;;;;0.67;0.67;;;13.30;99.90;;;;;;5047143;28;20677;-67
2022/09/18 01:03:04;;;;;;;0.67;0.67;;;13.30;99.90;;;;;;5043578;28;20228;-67
2022/09/18 01:05:43;;;;;;;0.40;0.40;;;13.30;99.90;;;;;;5048547;28;20206;-68
2022/09/18 01:08:26;;;;;;;0.87;0.87;;;13.30;99.90;;;;;;5044569;28;20470;-68
2022/09/18 01:11:04;;;;;;;0.57;0.57;;;13.30;99.90;;;;;;5047178;28;20207;-68
2022/09/18 01:13:38;;;;;;;0.70;0.70;;;13.20;99.90;;;;;;5030182;28;20196;-70
2022/09/18 01:16:15;;;;;;;0.60;0.60;;;13.20;99.90;;;;;;5031964;28;20335;-68
2022/09/18 01:18:51;;;;;;;0.50;0.50;;;13.20;99.90;;;;;;5042112;28;20225;-69
2022/09/18 01:21:21;;;;;;;0.67;0.67;;;13.20;99.90;;;;;;5032149;28;20204;-68
2022/09/18 01:24:20;;;;;;;0.83;0.83;;;13.30;99.90;;;;;;5037337;28;20201;-68
2022/09/18 01:26:55;;;;;;;0.60;0.60;;;13.30;99.90;;;;;;5038486;28;20731;-68
2022/09/18 01:29:37;;;;;;;1.10;0.80;;;13.30;99.90;;;;;;5031655;28;20222;-68
2022/09/18 01:32:08;;;;;;;0.50;0.50;;;13.20;99.90;;;;;;5039607;28;20212;-68
2022/09/18 01:34:40;;;;;;;0.40;0.40;;;13.20;99.90;;;;;;5041504;28;20291;-69
2022/09/18 01:37:14;;;;;;;0.53;0.53;;;13.20;99.90;;;;;;5044330;28;21536;-68
2022/09/18 01:39:47;;;;;;;0.63;0.63;;;13.20;99.90;;;;;;5039708;28;20247;-68
2022/09/18 01:42:16;;;;;;;0.70;0.70;;;13.20;99.90;;;;;;5036170;28;20211;-67
2022/09/18 01:44:46;;;;;;;0.50;0.50;;;13.10;99.90;;;;;;5041384;28;20895;-68
2022/09/18 01:47:16;;;;;;;0.80;0.80;;;13.10;99.90;;;;;;5039819;28;20227;-68
2022/09/18 01:49:46;;;;;;;0.70;0.70;;;13.10;99.90;;;;;;5042317;28;20234;-68
2022/09/18 01:52:18;;;;;;;0.60;0.60;;;13.10;99.90;;;;;;5039043;28;20206;-69
2022/09/18 01:54:49;;;;;;;0.70;0.70;;;13.20;99.90;;;;;;5044741;28;20201;-67
2022/09/18 01:57:22;;;;;;;1.80;0.97;;;13.20;99.90;;;;;;5034182;28;20204;-69
2022/09/18 01:59:57;;;;;;;0.80;0.80;;;13.10;99.90;;;;;;5033021;28;20239;-68
2022/09/18 02:02:29;;;;;;;0.80;0.80;;;13.10;99.90;;;;;;5037618;28;20278;-69
2022/09/18 02:04:59;;;;;;;0.80;0.80;;;13.00;99.90;;;;;;5049515;28;20208;-68
2022/09/18 02:07:31;;;;;;;0.70;0.70;;;13.00;99.90;;;;;;5045822;28;20254;-68
2022/09/18 02:09:58;;;;;;;0.60;0.60;;;12.90;99.90;;;;;;5043097;28;20227;-69
2022/09/18 02:12:28;;;;;;;0.70;0.70;;;12.90;99.90;;;;;;5037211;28;20196;-68
2022/09/18 02:15:00;;;;;;;0.70;0.70;;;12.90;99.90;;;;;;5047609;28;20214;-68
2022/09/18 02:17:33;;;;;;;0.80;0.80;;;12.90;99.90;;;;;;5042993;28;20291;-68
2022/09/18 02:20:05;;;;;;;0.67;0.67;;;12.80;99.90;;;;;;5062750;28;20227;-68
2022/09/18 02:22:34;;;;;;;0.47;0.40;;;12.80;99.90;;;;;;5059134;28;20212;-67
2022/09/18 02:25:05;;;;;;;0.70;0.70;;;12.80;99.90;;;;;;5040508;28;20196;-66
2022/09/18 02:27:34;;;;;;;0.77;0.77;;;12.80;99.90;;;;;;5047431;28;20208;-67
2022/09/18 02:30:05;;;;;;;0.60;0.60;;;12.90;99.90;;;;;;5049124;28;20335;-68
2022/09/18 02:32:32;;;;;;;0.70;0.70;;;12.80;99.90;;;;;;5039870;28;20255;-68
2022/09/18 02:34:59;;;;;;;0.77;0.77;;;12.90;99.90;;;;;;5051346;28;20678;-67
2022/09/18 02:37:38;;;;;;;0.53;0.53;;;12.80;99.90;;;;;;5050777;28;20203;-68
2022/09/18 02:40:20;;;;;;;0.60;0.60;;;12.80;99.90;;;;;;5052734;28;20244;-67
2022/09/18 02:42:58;;;;;;;0.77;0.70;;;12.80;99.90;;;;;;5050987;28;20227;-68
2022/09/18 02:45:35;;;;;;;0.70;0.70;;;12.80;99.90;;;;;;5046734;28;20684;-67
2022/09/18 02:48:19;;;;;;;0.60;0.60;;;12.80;99.90;;;;;;5056781;28;20195;-68
2022/09/18 02:50:55;;;;;;;0.70;0.70;;;12.80;99.90;;;;;;5055014;28;20204;-69
2022/09/18 02:53:28;;;;;;;0.60;0.60;;;12.90;99.90;;;;;;5048291;28;20680;-67
2022/09/18 02:56:01;;;;;;;0.90;0.90;;;12.70;99.90;;;;;;5056164;28;20560;-68
2022/09/18 02:58:31;;;;;;;0.70;0.70;;;12.70;99.90;;;;;;5051553;28;20701;-68
2022/09/18 03:01:03;;;;;;;0.97;0.67;;;12.70;99.90;;;;;;5047606;28;20204;-68
2022/09/18 03:03:33;;;;;;;0.50;0.50;;;12.70;99.90;;;;;;5053737;28;20208;-67
2022/09/18 03:06:01;;;;;;;1.50;0.73;;;12.80;99.90;;;;;;5043049;28;20208;-68
2022/09/18 03:08:28;;;;;;;0.70;0.70;;;12.80;99.90;;;;;;5037641;28;20220;-68
2022/09/18 03:10:55;;;;;;;0.60;0.60;;;12.80;99.90;;;;;;5036303;28;20212;-68
2022/09/18 03:13:22;;;;;;;0.40;0.40;;;12.80;99.90;;;;;;5032075;28;20205;-67
2022/09/18 03:15:49;;;;;;;0.70;0.70;;;12.80;99.90;;;;;;5034048;28;20233;-69
2022/09/18 03:18:17;;;;;;;0.60;0.60;;;12.80;99.90;;;;;;5034201;28;20230;-68
2022/09/18 03:20:43;;;;;;;0.77;0.77;;;12.80;99.90;;;;;;5038315;28;20205;-68
2022/09/18 03:23:10;;;;;;;0.87;0.73;;;12.80;99.90;;;;;;5036398;28;20306;-68
2022/09/18 03:25:37;;;;;;;1.00;0.50;;;12.80;99.90;;;;;;5038862;28;20200;-67
2022/09/18 03:28:04;;;;;;;0.77;0.77;;;12.80;99.90;;;;;;5034581;28;20197;-67
2022/09/18 03:30:31;;;;;;;0.80;0.70;;;12.80;99.90;;;;;;5025356;28;20201;-70
2022/09/18 03:32:58;;;;;;;0.60;0.60;;;12.80;99.90;;;;;;5035636;28;20211;-68
2022/09/18 03:35:26;;;;;;;0.83;0.80;;;12.80;99.90;;;;;;5030451;28;20578;-67
2022/09/18 03:37:54;;;;;;;0.70;0.70;;;12.80;99.90;;;;;;5034871;28;20226;-68
2022/09/18 03:40:22;;;;;;;0.73;0.73;;;12.80;99.90;;;;;;5032208;28;20808;-68
2022/09/18 03:42:49;;;;;;;0.70;0.70;;;12.80;99.90;;;;;;5034827;28;20227;-68
2022/09/18 03:45:17;;;;;;;0.60;0.60;;;12.90;99.90;;;;;;5037009;28;20602;-69
2022/09/18 03:47:45;;;;;;;0.50;0.50;;;12.80;99.90;;;;;;5029132;28;20197;-69
2022/09/18 03:50:13;;;;;;;0.83;0.83;;;12.70;99.90;;;;;;5035442;28;20234;-68
2022/09/18 03:52:42;;;;;;;0.53;0.50;;;12.70;99.90;;;;;;5031938;28;20201;-67
2022/09/18 03:55:09;;;;;;;0.63;0.63;;;12.80;99.90;;;;;;5033642;28;20208;-67
2022/09/18 03:57:36;;;;;;;0.63;0.63;;;12.80;99.90;;;;;;5031875;28;20205;-69
2022/09/18 04:00:05;;;;;;;2.00;0.80;;;12.80;99.90;;;;;;5034061;28;20220;-69
2022/09/18 04:02:31;;;;;;;0.70;0.70;;;12.90;99.90;;;;;;5040739;28;20316;-68
2022/09/18 04:04:58;;;;;;;0.40;0.40;;;12.90;99.90;;;;;;5042844;28;20205;-68
2022/09/18 04:07:25;;;;;;;1.00;1.00;;;12.90;99.90;;;;;;5037359;28;20659;-68
2022/09/18 04:09:53;;;;;;;1.10;1.00;;;13.00;99.90;;;;;;5026116;28;20225;-68
2022/09/18 04:12:20;;;;;;;0.90;0.90;;;12.90;99.90;;;;;;5031919;28;20216;-67
2022/09/18 04:14:47;;;;;;;0.70;0.70;;;13.00;99.90;;;;;;5032195;28;20730;-68
2022/09/18 04:17:14;;;;;;;0.77;0.77;;;12.90;99.90;;;;;;5033749;28;20285;-68
2022/09/18 04:19:41;;;;;;;0.73;0.73;;;12.90;99.90;;;;;;5031405;28;20231;-67
2022/09/18 04:22:08;;;;;;;0.60;0.60;;;12.90;99.90;;;;;;5028557;28;20993;-68
2022/09/18 04:24:35;;;;;;;0.93;0.70;;;12.90;99.90;;;;;;5032073;28;20216;-68
2022/09/18 04:27:03;;;;;;;0.60;0.60;;;12.90;99.90;;;;;;5028938;28;20224;-68
2022/09/18 04:29:30;;;;;;;0.83;0.83;;;12.90;99.90;;;;;;5037378;28;20240;-69
2022/09/18 04:31:57;;;;;;;0.70;0.70;;;12.90;99.90;;;;;;5042065;28;20214;-68
2022/09/18 04:34:24;;;;;;;0.70;0.70;;;12.90;99.90;;;;;;5043491;28;20215;-69
2022/09/18 04:36:51;;;;;;;0.60;0.60;;;12.90;99.90;;;;;;5033827;28;20232;-67
2022/09/18 04:39:17;;;;;;;0.47;0.47;;;12.90;99.90;;;;;;5035336;28;20230;-67
2022/09/18 04:41:45;;;;;;;0.70;0.70;;;12.90;99.90;;;;;;5030048;28;20256;-68
2022/09/18 04:44:13;;;;;;;0.80;0.80;;;12.90;99.90;;;;;;5034804;28;20242;-68
2022/09/18 04:46:40;;;;;;;0.47;0.40;;;12.90;99.90;;;;;;5025347;28;20205;-67
2022/09/18 04:49:07;;;;;;;0.67;0.60;;;12.90;99.90;;;;;;5031947;28;20242;-67
2022/09/18 04:51:34;;;;;;;0.77;0.77;;;12.80;99.90;;;;;;5032018;28;20597;-68
2022/09/18 04:54:01;;;;;;;0.70;0.70;;;12.90;99.90;;;;;;5034350;28;20204;-68
2022/09/18 04:56:28;;;;;;;0.43;0.43;;;12.90;99.90;;;;;;5029451;28;20224;-68
2022/09/18 04:58:55;;;;;;;0.83;0.83;;;12.90;99.90;;;;;;5028534;28;20232;-67
2022/09/18 05:01:23;;;;;;;1.60;0.70;;;12.90;99.90;;;;;;5035207;28;20204;-67
2022/09/18 05:03:50;;;;;;;0.70;0.70;;;12.90;99.90;;;;;;5019332;28;20256;-67
2022/09/18 05:06:17;;;;;;;0.67;0.67;;;12.90;99.90;;;;;;5035274;28;20955;-68
2022/09/18 05:08:44;;;;;;;0.50;0.50;;;12.90;99.90;;;;;;5029329;28;20757;-68
2022/09/18 05:11:10;;;;;;;0.70;0.70;;;12.90;99.90;;;;;;5032166;28;20204;-67
2022/09/18 05:13:38;;;;;;;0.73;0.73;;;13.00;99.90;;;;;;5029621;28;20211;-68
2022/09/18 05:16:06;;;;;;;0.90;0.90;;;12.90;99.90;;;;;;5028105;28;20202;-69
2022/09/18 05:18:34;;;;;;;0.53;0.53;;;12.90;99.90;;;;;;5030675;28;20228;-69
2022/09/18 05:21:02;;;;;;;0.87;0.87;;;12.90;99.90;;;;;;5033733;28;20207;-70
2022/09/18 05:23:28;;;;;;;0.70;0.70;;;12.90;99.90;;;;;;5031243;28;20224;-68
2022/09/18 05:25:55;;;;;;;0.83;0.83;;;12.90;99.90;;;;;;5030064;28;20675;-67
2022/09/18 05:28:22;;;;;;;1.10;1.00;;;12.90;99.90;;;;;;5036833;28;20303;-68
2022/09/18 05:30:49;;;;;;;0.53;0.53;;;12.90;99.90;;;;;;5026777;28;20564;-67
2022/09/18 05:33:16;;;;;;;0.70;0.70;;;12.90;99.90;;;;;;5028127;28;20210;-68
2022/09/18 05:35:44;;;;;;;0.60;0.60;;;13.10;99.90;;;;;;5030577;28;20201;-68
2022/09/18 05:38:11;;;;;;;0.47;0.47;;;12.90;99.90;;;;;;5035839;28;20317;-68
2022/09/18 05:40:38;;;;;;;0.80;0.80;;;12.90;99.90;;;;;;5031952;28;20209;-68
2022/09/18 05:43:06;;;;;;;0.97;0.83;;;12.90;99.90;;;;;;5023720;28;20251;-69
2022/09/18 05:45:34;;;;;;;0.87;0.80;;;12.90;99.90;;;;;;5029431;28;20209;-69
2022/09/18 05:48:03;;;;;;;0.97;0.87;;;12.90;99.90;;;;;;5030449;28;20286;-68
2022/09/18 05:50:31;;;;;;;0.90;0.70;;;12.80;99.90;;;;;;5031440;28;20232;-68
2022/09/18 05:53:00;;;;;;;1.03;1.00;;;12.80;99.90;;;;;;5033673;28;20205;-67
2022/09/18 05:55:28;;;;;;;0.63;0.63;;;12.90;99.90;;;;;;5033057;28;20273;-68
2022/09/18 05:57:56;;;;;;;0.57;0.57;;;12.90;99.90;;;;;;5033903;28;20205;-66
2022/09/18 06:00:24;;;;;;;0.70;0.70;;;12.90;99.90;;;;;;5035296;28;20220;-65
2022/09/18 06:02:55;;;;;;;0.80;0.80;;;13.00;99.90;;;;;;5023310;28;20205;-67
2022/09/18 06:05:23;;;;;;;0.80;0.80;;;13.00;99.90;;;;;;5029704;28;20209;-66
2022/09/18 06:07:50;;;;;;;0.80;0.80;;;13.00;99.90;;;;;;5025493;28;20296;-66
2022/09/18 06:10:19;;;;;;;0.67;0.63;;;12.90;99.90;;;;;;5039967;28;20227;-65
2022/09/18 06:12:45;;;;;;;0.67;0.67;;;12.90;99.90;;;;;;5048546;28;20275;-66
2022/09/18 06:15:13;;;;;;;0.70;0.70;;;12.90;99.90;;;;;;5029846;28;20204;-69
2022/09/18 06:17:40;;;;;;;1.23;0.93;;;13.00;99.90;;;;;;5028580;28;20204;-67
2022/09/18 06:20:08;;;;;;;0.60;0.60;;;13.00;99.90;;;;;;5029261;28;20243;-68
2022/09/18 06:22:35;;;;;;;0.57;0.57;;;12.90;99.90;;;;;;5028891;28;20200;-68
2022/09/18 06:25:02;;;;;;;0.77;0.77;;;13.00;99.90;;;;;;5034690;28;20229;-67
2022/09/18 06:27:30;;;;;;;0.60;0.60;;;13.00;99.90;;;;;;5029520;28;20197;-68
2022/09/18 06:29:57;;;;;;;0.60;0.60;;;13.00;99.90;;;;;;5033211;28;20312;-69
2022/09/18 06:32:24;;;;;;;0.57;0.57;;;13.10;99.90;;;;;;5030009;28;20197;-69
2022/09/18 06:34:51;;;;;;;0.87;0.83;;;13.10;99.90;;;;;;5029823;28;20202;-69
2022/09/18 06:37:18;;;;;;;0.60;0.60;;;13.10;99.90;;;;;;5034921;28;20294;-69
2022/09/18 06:39:45;;;;;;;1.60;0.70;;;13.10;99.90;;;;;;5031339;28;20217;-67
2022/09/18 06:42:12;;;;;;;0.80;0.80;;;13.20;99.90;;;;;;5037119;28;20681;-67
2022/09/18 06:44:40;;;;;;;0.70;0.70;;;13.20;99.90;;;;;;5041136;28;20315;-68
2022/09/18 06:47:07;;;;;;;0.77;0.77;;;13.20;99.90;;;;;;5030260;28;20205;-66
2022/09/18 06:49:34;;;;;;;0.67;0.67;;;13.20;99.90;;;;;;5034989;28;20606;-69
2022/09/18 06:52:01;;;;;;;0.93;0.93;;;13.10;99.90;;;;;;5033139;28;20229;-69
2022/09/18 06:54:28;;;;;;;0.80;0.80;;;13.10;99.90;;;;;;5032705;28;20211;-67
2022/09/18 06:56:55;;;;;;;0.57;0.57;;;13.10;99.90;;;;;;5027190;28;20205;-67
2022/09/18 06:59:22;;;;;;;0.57;0.57;;;13.20;99.90;;;;;;5025786;28;20287;-69
2022/09/18 07:01:50;;;;;;;0.60;0.60;;;13.20;99.90;;;;;;5028040;28;20578;-65
2022/09/18 07:04:17;;;;;;;1.20;1.10;;;13.20;99.90;;;;;;5034278;28;20831;-68
2022/09/18 07:06:45;;;;;;;0.70;0.70;;;13.20;99.90;;;;;;5036819;28;20303;-68
2022/09/18 07:09:12;;;;;;;0.77;0.77;;;13.10;99.90;;;;;;5035475;28;20220;-68
2022/09/18 07:11:39;;;;;;;0.60;0.60;;;13.20;99.90;;;;;;5025879;28;20205;-68
2022/09/18 07:14:06;;;;;;;0.70;0.70;;;13.20;99.90;;;;;;5026828;28;20204;-67
2022/09/18 07:16:34;;;;;;;0.67;0.67;;;13.20;99.90;;;;;;5024883;28;20217;-69
2022/09/18 07:19:03;;;;;;;1.13;0.93;;;13.20;99.90;;;;;;5030412;28;20324;-68
2022/09/18 07:21:30;;;;;;;0.67;0.67;;;13.20;99.90;;;;;;5034800;28;20196;-69
2022/09/18 07:23:57;;;;;;;0.80;0.80;;;13.20;99.90;;;;;;5034779;28;20227;-68
2022/09/18 07:26:24;;;;;;;0.70;0.70;;;13.20;99.90;;;;;;5031333;28;20804;-68
2022/09/18 07:28:51;;;;;;;0.60;0.60;;;13.30;99.90;;;;;;5030855;28;20247;-69
2022/09/18 07:31:18;;;;;;;0.80;0.70;;;13.30;99.90;;;;;;5016029;28;20202;-68
2022/09/18 07:33:50;;;;;;;0.73;0.73;;;13.40;99.90;;;;;;5032815;28;20226;-68
2022/09/18 07:36:19;;;;;;;0.63;0.63;;;13.40;99.90;;;;;;5026656;28;20262;-67
2022/09/18 07:38:50;;;;;;;0.63;0.63;;;13.40;99.90;;;;;;5035208;28;20228;-67
2022/09/18 07:41:17;;;;;;;0.80;0.80;;;13.40;99.90;;;;;;5028555;28;20278;-68
2022/09/18 07:43:43;;;;;;;0.90;0.90;;;13.40;99.90;;;;;;5030779;28;20661;-68
2022/09/18 07:46:11;;;;;;;0.70;0.70;;;13.40;99.90;;;;;;5035404;28;20226;-68
2022/09/18 07:48:37;;;;;;;0.70;0.70;;;13.40;99.90;;;;;;5031434;28;20228;-69
2022/09/18 07:51:05;;;;;;;0.60;0.60;;;13.50;99.90;;;;;;5038192;28;20298;-70
2022/09/18 07:53:33;;;;;;;2.93;1.00;;;13.60;99.90;;;;;;5035819;28;20205;-68
2022/09/18 07:56:00;;;;;;;0.70;0.70;;;13.60;99.90;;;;;;5033622;28;20389;-69
2022/09/18 07:58:27;;;;;;;0.67;0.67;;;13.70;99.90;;;;;;5036100;28;20686;-67
2022/09/18 08:00:53;;;;;;;1.10;1.00;;;13.70;99.90;;;;;;5031409;28;20213;-69
2022/09/18 08:03:20;;;;;;;1.10;1.00;;;13.70;99.90;;;;;;5033346;28;20617;-68
2022/09/18 08:05:47;;;;;;;1.17;0.97;;;13.80;99.90;;;;;;5045760;28;20287;-68
2022/09/18 08:08:15;;;;;;;0.60;0.60;;;13.90;99.90;;;;;;5044304;28;20201;-69
2022/09/18 08:10:44;;;;;;;0.60;0.60;;;14.00;99.90;;;;;;5047201;28;20210;-69
2022/09/18 08:13:12;;;;;;;0.80;0.80;;;14.10;99.90;;;;;;5039201;28;20678;-68
2022/09/18 08:15:40;;;;;;;0.70;0.70;;;14.10;99.90;;;;;;5041521;28;20589;-69
2022/09/18 08:18:09;;;;;;;0.70;0.70;;;14.00;99.90;;;;;;5044620;28;20223;-67
2022/09/18 08:20:36;;;;;;;0.57;0.57;;;14.10;99.90;;;;;;5042876;28;20201;-68
2022/09/18 08:23:05;;;;;;;0.80;0.80;;;14.10;99.90;;;;;;5049798;28;20208;-69
2022/09/18 08:25:32;;;;;;;0.80;0.80;;;14.10;99.90;;;;;;5042542;28;20220;-70
2022/09/18 08:28:02;;;;;;;0.80;0.80;;;14.10;99.90;;;;;;5049213;28;20736;-70
2022/09/18 08:30:29;;;;;;;0.63;0.63;;;14.10;99.90;;;;;;5044662;28;20217;-70
2022/09/18 08:33:00;;;;;;;0.83;0.83;;;14.10;99.90;;;;;;5041894;28;20581;-68
2022/09/18 08:35:27;;;;;;;0.60;0.60;;;14.20;99.90;;;;;;5047517;28;20196;-69
2022/09/18 08:37:54;;;;;;;1.00;0.90;;;14.10;99.90;;;;;;5050463;28;20204;-67
2022/09/18 08:40:26;;;;;;;0.60;0.60;;;14.10;99.90;;;;;;5048353;28;20314;-68
2022/09/18 08:43:06;;;;;;;0.67;0.67;;;14.20;99.90;;;;;;5043787;28;20196;-70
2022/09/18 08:45:48;;;;;;;0.50;0.50;;;14.30;99.90;;;;;;5050011;28;20208;-69
2022/09/18 08:48:19;;;;;;;0.50;0.50;;;14.40;99.90;;;;;;5042442;28;20196;-68
2022/09/18 08:50:54;;;;;;;0.70;0.70;;;14.30;99.90;;;;;;5049519;28;20283;-68
2022/09/18 08:53:26;;;;;;;1.17;0.73;;;14.30;99.90;;;;;;5043769;28;20200;-69
2022/09/18 08:55:53;;;;;;;0.80;0.80;;;14.40;99.90;;;;;;5050618;28;20218;-68
2022/09/18 08:58:29;;;;;;;0.73;0.73;;;14.40;99.90;;;;;;5053955;28;20205;-68
2022/09/18 09:01:01;;;;;;;1.07;0.97;;;14.40;99.90;;;;;;5051117;28;20299;-69
2022/09/18 09:03:34;;;;;;;0.70;0.70;;;14.30;99.90;;;;;;5045420;28;20287;-68
2022/09/18 09:06:06;;;;;;;0.80;0.80;;;14.40;99.90;;;;;;5050775;28;20228;-68
2022/09/18 09:08:59;;;;;;;0.77;0.77;;;14.40;99.90;;;;;;5045098;28;20223;-68
2022/09/18 09:11:39;;;;;;;0.90;0.90;;;14.40;99.90;;;;;;5040126;28;20200;-69
2022/09/18 09:14:25;;;;;;;0.93;0.93;;;14.40;99.90;;;;;;5045293;28;20216;-69
2022/09/18 09:17:01;;;;;;;1.13;0.70;;;14.50;99.90;;;;;;5043277;28;20202;-69
2022/09/18 09:19:34;;;;;;;0.73;0.73;;;14.50;99.90;;;;;;5048101;28;20238;-69
2022/09/18 09:22:07;;;;;;;0.80;0.80;;;14.50;99.90;;;;;;5044424;28;20206;-68
2022/09/18 09:24:37;;;;;;;0.80;0.80;;;14.70;99.90;;;;;;5050829;28;20204;-69
2022/09/18 09:27:18;;;;;;;0.70;0.70;;;14.90;99.90;;;;;;5045638;28;20203;-69
2022/09/18 09:29:47;;;;;;;0.60;0.60;;;14.80;99.90;;;;;;5049548;28;20281;-70
2022/09/18 09:32:24;;;;;;;0.70;0.70;;;14.80;99.90;;;;;;5046820;28;20744;-68
2022/09/18 09:34:55;;;;;;;0.73;0.73;;;15.00;99.90;;;;;;5048362;28;20200;-68
2022/09/18 09:37:29;;;;;;;1.13;0.80;;;15.10;99.90;;;;;;5056216;28;20253;-68
2022/09/18 09:39:59;;;;;;;0.63;0.60;;;15.40;99.90;;;;;;5044309;28;20231;-68
2022/09/18 09:42:30;;;;;;;1.00;0.90;;;15.60;99.90;;;;;;5046900;28;20571;-68
2022/09/18 09:45:02;;;;;;;0.70;0.70;;;15.70;99.90;;;;;;5046063;28;20220;-67
2022/09/18 09:47:37;;;;;;;0.60;0.60;;;15.70;99.90;;;;;;5040362;28;20211;-68
2022/09/18 09:50:15;;;;;;;0.80;0.80;;;15.60;99.90;;;;;;5046056;28;20619;-68
2022/09/18 09:52:45;;;;;;;0.93;0.83;;;15.70;99.90;;;;;;5045764;28;20625;-67
2022/09/18 09:55:21;;;;;;;0.70;0.70;;;15.80;99.90;;;;;;5048160;28;20686;-69
2022/09/18 09:57:58;;;;;;;0.83;0.80;;;16.20;99.90;;;;;;5046757;28;20208;-69
2022/09/18 10:00:29;;;;;;;0.90;0.90;;;16.50;99.90;;;;;;5024150;28;20220;-68
2022/09/18 10:03:29;;;;;;;1.13;1.03;;;16.50;99.90;;;;;;5056852;28;20227;-69
2022/09/18 10:06:02;;;;;;;0.70;0.70;;;16.30;99.90;;;;;;5038591;28;20254;-69
2022/09/18 10:08:35;;;;;;;0.87;0.87;;;16.20;99.90;;;;;;5053854;28;20224;-68
2022/09/18 10:11:07;;;;;;;0.60;0.60;;;16.10;99.90;;;;;;5051704;28;20210;-68
2022/09/18 10:13:40;;;;;;;1.03;0.93;;;16.00;99.90;;;;;;5046376;28;20192;-67
2022/09/18 10:16:13;;;;;;;1.03;0.93;;;15.80;99.90;;;;;;5042579;28;20302;-69
2022/09/18 10:18:42;;;;;;;0.70;0.70;;;15.60;99.90;;;;;;5046100;28;20231;-68
2022/09/18 10:21:13;;;;;;;0.83;0.77;;;15.60;99.90;;;;;;5043816;28;20204;-68
2022/09/18 10:23:42;;;;;;;0.53;0.53;;;15.60;99.90;;;;;;5048605;28;20570;-68
2022/09/18 10:26:14;;;;;;;0.70;0.70;;;15.60;99.90;;;;;;5045271;28;20265;-69
2022/09/18 10:28:41;;;;;;;0.87;0.87;;;15.60;99.90;;;;;;5049716;28;20223;-69
2022/09/18 10:31:11;;;;;;;0.70;0.70;;;15.60;99.90;;;;;;5045386;28;20200;-68
2022/09/18 10:33:41;;;;;;;0.70;0.70;;;15.70;99.90;;;;;;5044043;28;20196;-68
2022/09/18 10:36:21;;;;;;;0.80;0.80;;;15.60;99.90;;;;;;5044702;28;20204;-68
2022/09/18 10:38:49;;;;;;;0.70;0.70;;;15.60;99.90;;;;;;5050470;28;20220;-69
2022/09/18 10:41:28;;;;;;;0.67;0.67;;;15.50;99.90;;;;;;5033321;28;20201;-68
2022/09/18 10:44:21;;;;;;;0.50;0.50;;;15.50;99.90;;;;;;5038299;28;20206;-68
2022/09/18 10:46:56;;;;;;;0.97;0.97;;;15.50;99.90;;;;;;5011769;28;20197;-67
2022/09/18 10:49:26;;;;;;;1.13;0.90;;;15.50;99.90;;;;;;5051471;22;20218;-63
2022/09/18 10:52:21;;;;;;;1.03;0.87;;;15.50;99.90;;;;;;5036108;28;20308;-64
2022/09/18 10:54:58;;;;;;;0.50;0.50;;;15.90;99.90;;;;;;5046045;28;20661;-63
2022/09/18 10:57:27;;;;;;;0.97;0.83;;;16.00;99.90;;;;;;5039394;28;20669;-63
2022/09/18 10:59:54;;;;;;;0.50;0.50;;;16.20;99.90;;;;;;5038264;28;20224;-64
2022/09/18 11:02:25;;;;;;;0.60;0.60;;;16.30;99.90;;;;;;5040630;28;20206;-64
2022/09/18 11:04:53;;;;;;;0.60;0.60;;;16.30;99.90;;;;;;5030078;28;20336;-63
2022/09/18 11:07:21;;;;;;;0.77;0.77;;;16.50;99.90;;;;;;5047411;28;20211;-62
2022/09/18 11:09:49;;;;;;;0.60;0.60;;;16.70;99.90;;;;;;5044768;28;20216;-64
2022/09/18 11:12:19;;;;;;;0.60;0.60;;;17.20;99.90;;;;;;5048710;28;20204;-63
2022/09/18 11:14:49;;;;;;;0.70;0.70;;;17.50;99.90;;;;;;5040979;28;20192;-63
2022/09/18 11:17:29;;;;;;;0.50;0.50;;;17.60;99.90;;;;;;5046086;28;20207;-63
2022/09/18 11:19:59;;;;;;;0.50;0.50;;;17.40;99.90;;;;;;5046604;28;20238;-62
2022/09/18 11:22:40;;;;;;;0.63;0.63;;;17.30;99.90;;;;;;5048004;28;20208;-63
2022/09/18 11:25:17;;;;;;;0.70;0.70;;;17.10;99.90;;;;;;5046941;28;20306;-64
2022/09/18 11:27:45;;;;;;;0.60;0.60;;;17.10;99.90;;;;;;5044419;28;20249;-65
2022/09/18 11:30:20;;;;;;;0.57;0.57;;;17.00;99.90;;;;;;5041937;28;20311;-63
2022/09/18 11:32:51;;;;;;;0.57;0.57;;;17.00;99.90;;;;;;5046160;28;20207;-65
2022/09/18 11:35:21;;;;;;;0.47;0.47;;;17.00;99.90;;;;;;5033734;28;20593;-64
2022/09/18 11:37:51;;;;;;;0.50;0.50;;;17.00;99.90;;;;;;5045701;28;20207;-64
2022/09/18 11:40:23;;;;;;;0.53;0.53;;;17.20;99.90;;;;;;5042417;28;20254;-65
2022/09/18 11:42:54;;;;;;;0.60;0.60;;;17.40;99.90;;;;;;5047486;28;20203;-64
2022/09/18 11:45:31;;;;;;;0.50;0.50;;;17.60;99.90;;;;;;5042282;28;20212;-63
2022/09/18 11:48:11;;;;;;;0.57;0.57;;;17.80;99.90;;;;;;5048265;28;20298;-64
2022/09/18 11:50:39;;;;;;;0.63;0.60;;;17.90;99.90;;;;;;5032060;28;20236;-62
2022/09/18 11:53:12;;;;;;;0.60;0.60;;;18.10;99.90;;;;;;5048271;28;20210;-63
2022/09/18 11:55:43;;;;;;;0.50;0.50;;;18.20;99.90;;;;;;5041452;28;20201;-64
2022/09/18 11:58:15;;;;;;;0.80;0.60;;;18.40;99.90;;;;;;5043760;28;20219;-64
2022/09/18 12:00:47;;;;;;;0.57;0.57;;;18.30;99.90;;;;;;5029532;28;20231;-64
2022/09/18 12:03:21;;;;;;;0.60;0.60;;;18.20;99.90;;;;;;5050741;28;20204;-63
2022/09/18 12:05:54;;;;;;;0.50;0.50;;;18.10;99.90;;;;;;5035405;28;20219;-62
2022/09/18 12:08:38;;;;;;;0.57;0.57;;;18.00;99.90;;;;;;5027956;28;20212;-62
2022/09/18 12:11:14;;;;;;;0.40;0.40;;;17.70;99.90;;;;;;5038899;28;20239;-65
2022/09/18 12:13:48;;;;;;;0.73;0.73;;;17.50;99.90;;;;;;5041924;28;20235;-65
2022/09/18 12:16:21;;;;;;;0.50;0.50;;;17.50;99.90;;;;;;5048750;28;20290;-63
2022/09/18 12:18:59;;;;;;;0.67;0.67;;;17.30;99.90;;;;;;5046315;28;20200;-62
2022/09/18 12:21:38;;;;;;;0.50;0.50;;;17.30;99.90;;;;;;5036445;28;20246;-64
2022/09/18 12:24:08;;;;;;;0.70;0.70;;;17.40;99.90;;;;;;5028952;28;20232;-65
2022/09/18 12:26:44;;;;;;;0.50;0.50;;;17.50;99.90;;;;;;5025689;28;20233;-63
2022/09/18 12:29:21;;;;;;;0.53;0.53;;;17.50;99.90;;;;;;5033058;28;20207;-63
2022/09/18 12:31:58;;;;;;;0.40;0.40;;;17.50;99.90;;;;;;5033211;28;20206;-63
2022/09/18 12:34:32;;;;;;;0.50;0.50;;;17.50;99.90;;;;;;5031111;28;20200;-64
2022/09/18 12:37:13;;;;;;;0.60;0.60;;;17.60;99.90;;;;;;5027554;28;20202;-65
2022/09/18 12:40:06;;;;;;;0.57;0.57;;;17.60;99.90;;;;;;5021392;28;20233;-65
2022/09/18 12:42:43;;;;;;;0.50;0.50;;;17.60;99.90;;;;;;5035078;28;20196;-64
2022/09/18 12:45:37;;;;;;;0.40;0.40;;;17.50;99.90;;;;;;5037903;28;20225;-65
2022/09/18 12:48:15;;;;;;;0.60;0.60;;;17.50;99.90;;;;;;5038015;28;20215;-65
2022/09/18 12:50:58;;;;;;;0.83;0.80;;;17.40;99.90;;;;;;5037659;28;20228;-64
2022/09/18 12:53:35;;;;;;;0.57;0.57;;;17.40;99.90;;;;;;5041705;28;20214;-62
2022/09/18 12:56:13;;;;;;;0.33;0.33;;;17.40;99.90;;;;;;5049685;28;20203;-65
2022/09/18 12:59:04;;;;;;;0.50;0.50;;;17.30;99.90;;;;;;5031597;28;20215;-63
2022/09/18 13:01:35;;;;;;;0.50;0.50;;;17.40;99.90;;;;;;5029820;28;20207;-63
2022/09/18 13:04:10;;;;;;;0.50;0.50;;;17.30;99.90;;;;;;5024552;28;20193;-62
2022/09/18 13:06:46;;;;;;;0.40;0.40;;;17.30;99.90;;;;;;5032470;28;20917;-65